Weather at Le Touquet-Côte d'Opale Airport

Public forecast

Using degrees Celsius for public forecast. Weather courtesy of forecast.io.

Current aviation weather report (METAR) for Le Touquet-Côte d'Opale Airport

Report is more than 6 hours old.

2022/11/14 15:30 (retrieved 2 years ago)

LFAT 141530Z AUTO 14008KT 3800 BR OVC002 09/09 Q1008 TEMPO SCT015 BECMG 7000 NSW

Closest aviation forecast (TAF) to Le Touquet-Côte d'Opale Airport

Forecast is more than 12 hours old.

Closest forecast is Koksijde Air Base, 52.1 nm (96.5 km) NE.

2023/02/22 19:15 (retrieved 1 year ago)

TAF EBFN 221541Z 2219/2307 28006KT 8000 BKN013 PROB40 TEMPO 2219/2221 5000 -RA SCT006 BKN010 BECMG 2223/2301 34008KT 6000 PROB30 TEMPO 2221/2307 5000 -RA SCT006 BKN010 PROB40 TEMPO 2302/2307 2500 BR BKN003